createdAt,value
2019-04-04T00:01:22.530Z,7.10
2019-04-04T00:03:51.862Z,7.16
2019-04-04T00:06:20.561Z,7.24
2019-04-04T00:08:49.053Z,7.29
2019-04-04T00:11:17.249Z,7.32
2019-04-04T00:13:45.450Z,7.29
2019-04-04T00:16:16.063Z,7.34
2019-04-04T00:18:43.991Z,7.40
2019-04-04T00:21:13.227Z,7.40
2019-04-04T00:23:41.454Z,7.40
2019-04-04T00:26:10.785Z,7.37
2019-04-04T00:28:39.531Z,7.37
2019-04-04T00:31:07.941Z,7.40
2019-04-04T00:33:36.404Z,7.40
2019-04-04T00:36:04.912Z,7.40
2019-04-04T00:38:33.114Z,7.37
2019-04-04T00:41:01.349Z,7.35
2019-04-04T00:43:29.821Z,7.37
2019-04-04T00:46:00.539Z,7.40
2019-04-04T00:48:28.336Z,7.42
2019-04-04T00:50:56.797Z,7.44
2019-04-04T00:53:25.306Z,7.44
2019-04-04T00:55:53.761Z,7.51
2019-04-04T00:58:22.279Z,7.59
2019-04-04T01:00:50.579Z,7.75
2019-04-04T01:03:18.801Z,7.89
2019-04-04T01:05:47.177Z,8.00
2019-04-04T01:08:15.667Z,8.05
2019-04-04T01:10:44.138Z,8.09
2019-04-04T01:13:12.365Z,8.11
2019-04-04T01:15:40.668Z,8.10
2019-04-04T01:18:08.869Z,8.10
2019-04-04T01:20:37.237Z,8.09
2019-04-04T01:23:05.550Z,8.06
2019-04-04T01:25:34.012Z,8.05
2019-04-04T01:28:02.492Z,8.07
2019-04-04T01:30:30.986Z,8.06
2019-04-04T01:32:59.466Z,8.12
2019-04-04T01:35:27.956Z,8.08
2019-04-04T01:37:58.119Z,8.03
2019-04-04T01:40:26.436Z,8.03
2019-04-04T01:42:54.922Z,8.03
2019-04-04T01:45:23.394Z,7.97
2019-04-04T01:47:51.611Z,7.92
2019-04-04T01:50:22.494Z,7.85
2019-04-04T01:52:49.879Z,7.81
2019-04-04T01:55:18.336Z,7.78
2019-04-04T01:57:46.823Z,7.77
2019-04-04T02:00:15.835Z,7.82
2019-04-04T02:02:44.292Z,7.91
2019-04-04T02:05:13.111Z,7.96
2019-04-04T02:07:41.256Z,7.98
2019-04-04T02:10:10.235Z,7.99
2019-04-04T02:12:39.334Z,7.99
2019-04-04T02:15:13.787Z,7.98
2019-04-04T02:17:40.540Z,7.99
2019-04-04T02:20:08.865Z,8.03
2019-04-04T02:22:37.066Z,8.06
2019-04-04T02:25:08.027Z,8.06
2019-04-04T02:27:37.914Z,8.03
2019-04-04T02:30:07.166Z,8.03
2019-04-04T02:32:35.370Z,8.04
2019-04-04T02:35:05.057Z,8.03
2019-04-04T02:37:33.280Z,8.02
2019-04-04T02:40:01.762Z,8.00
2019-04-04T02:42:29.963Z,8.01
2019-04-04T02:44:58.208Z,8.02
2019-04-04T02:47:26.796Z,7.99
2019-04-04T02:49:55.160Z,7.99
2019-04-04T02:52:23.649Z,8.00
2019-04-04T02:54:57.087Z,7.96
2019-04-04T02:57:22.668Z,7.96
2019-04-04T02:59:53.404Z,7.95
2019-04-04T03:02:23.174Z,7.92
2019-04-04T03:04:51.190Z,7.90
2019-04-04T03:07:19.662Z,7.84
2019-04-04T03:09:48.164Z,7.82
2019-04-04T03:12:16.620Z,7.82
2019-04-04T03:14:45.105Z,7.80
2019-04-04T03:17:13.602Z,7.80
2019-04-04T03:19:43.626Z,7.80
2019-04-04T03:22:11.705Z,7.81
2019-04-04T03:24:42.904Z,7.79
2019-04-04T03:27:10.084Z,7.77
2019-04-04T03:29:38.549Z,7.75
2019-04-04T03:32:13.786Z,7.74
2019-04-04T03:34:38.625Z,7.74
2019-04-04T03:37:10.170Z,7.73
2019-04-04T03:39:37.085Z,7.68
2019-04-04T03:42:08.223Z,7.60
2019-04-04T03:44:35.582Z,7.52
2019-04-04T03:47:03.772Z,7.45
2019-04-04T03:49:32.065Z,7.38
2019-04-04T03:52:00.272Z,7.30
2019-04-04T03:54:28.634Z,7.22
2019-04-04T03:56:56.828Z,7.15
2019-04-04T03:59:25.048Z,7.11
2019-04-04T04:01:53.419Z,7.13
2019-04-04T04:04:21.775Z,7.12
2019-04-04T04:06:50.388Z,7.14
2019-04-04T04:09:18.582Z,7.09
2019-04-04T04:11:46.806Z,7.03
2019-04-04T04:14:15.012Z,6.97
2019-04-04T04:16:43.227Z,6.88
2019-04-04T04:19:11.453Z,6.72
2019-04-04T04:21:42.760Z,6.75
2019-04-04T04:24:09.649Z,6.86
2019-04-04T04:26:40.989Z,6.87
2019-04-04T04:29:08.255Z,6.81
2019-04-04T04:31:36.487Z,6.79
2019-04-04T04:34:04.718Z,6.78
2019-04-04T04:36:33.199Z,6.74
2019-04-04T04:39:01.669Z,6.72
2019-04-04T04:41:30.170Z,6.75
2019-04-04T04:43:58.627Z,6.81
2019-04-04T04:46:27.120Z,6.81
2019-04-04T04:48:55.616Z,6.81
2019-04-04T04:51:24.090Z,6.81
2019-04-04T04:53:52.560Z,6.83
2019-04-04T04:56:20.780Z,6.82
2019-04-04T04:58:49.005Z,6.81
2019-04-04T05:01:18.383Z,6.78
2019-04-04T05:03:47.293Z,6.80
2019-04-04T05:06:15.496Z,6.78
2019-04-04T05:08:43.707Z,6.71
2019-04-04T05:11:14.457Z,6.71
2019-04-04T05:13:41.840Z,6.59
2019-04-04T05:16:10.061Z,6.59
2019-04-04T05:18:38.253Z,6.63
2019-04-04T05:21:06.482Z,6.55
2019-04-04T05:23:34.663Z,6.51
2019-04-04T05:26:03.295Z,6.51
2019-04-04T05:28:31.550Z,6.52
2019-04-04T05:30:59.766Z,6.60
2019-04-04T05:33:29.136Z,6.72
2019-04-04T05:35:57.901Z,6.90
2019-04-04T05:38:26.093Z,7.02
2019-04-04T05:40:55.346Z,7.12
2019-04-04T05:43:24.287Z,7.19
2019-04-04T05:45:52.487Z,7.25
2019-04-04T05:48:20.699Z,7.28
2019-04-04T05:50:48.911Z,7.28
2019-04-04T05:53:17.116Z,7.27
2019-04-04T05:55:45.315Z,7.30
2019-04-04T05:58:13.538Z,7.35
2019-04-04T06:00:44.096Z,7.42
2019-04-04T06:03:13.025Z,7.46
2019-04-04T06:05:42.239Z,7.43
2019-04-04T06:08:10.454Z,7.41
2019-04-04T06:10:38.711Z,7.43
2019-04-04T06:13:06.849Z,7.47
2019-04-04T06:15:35.065Z,7.48
2019-04-04T06:18:03.334Z,7.52
2019-04-04T06:20:31.546Z,7.57
2019-04-04T06:22:59.754Z,7.56
2019-04-04T06:25:27.980Z,7.59
2019-04-04T06:27:56.549Z,7.64
2019-04-04T06:30:24.765Z,7.73
2019-04-04T06:32:52.977Z,7.78
2019-04-04T06:35:21.184Z,7.78
2019-04-04T06:37:51.305Z,7.79
2019-04-04T06:40:19.575Z,7.80
2019-04-04T06:42:47.789Z,7.84
2019-04-04T06:45:16.328Z,7.89
2019-04-04T06:47:44.550Z,7.91
2019-04-04T06:50:12.758Z,7.90
2019-04-04T06:52:40.952Z,7.88
2019-04-04T06:55:09.173Z,7.87
2019-04-04T06:57:37.613Z,7.88
2019-04-04T07:00:08.931Z,7.84
2019-04-04T07:02:37.129Z,7.83
2019-04-04T07:05:10.393Z,7.79
2019-04-04T07:07:37.864Z,7.76
2019-04-04T07:10:06.075Z,7.75
2019-04-04T07:12:37.850Z,7.73
2019-04-04T07:15:06.140Z,7.72
2019-04-04T07:17:34.346Z,7.71
2019-04-04T07:20:02.547Z,7.73
2019-04-04T07:22:30.736Z,7.74
2019-04-04T07:25:01.124Z,7.64
2019-04-04T07:27:28.872Z,7.68
2019-04-04T07:29:57.326Z,7.68
2019-04-04T07:32:25.478Z,7.70
2019-04-04T07:34:53.699Z,7.75
2019-04-04T07:37:22.664Z,7.79
2019-04-04T07:39:50.868Z,7.79
2019-04-04T07:42:19.154Z,7.80
2019-04-04T07:44:47.601Z,7.81
2019-04-04T07:47:16.767Z,7.93
2019-04-04T07:49:45.038Z,8.09
2019-04-04T07:52:13.256Z,8.23
2019-04-04T07:54:41.456Z,8.28
2019-04-04T07:57:09.678Z,8.38
2019-04-04T07:59:37.879Z,8.42
2019-04-04T08:02:06.092Z,8.48
2019-04-04T08:04:34.360Z,8.56
2019-04-04T08:07:02.573Z,8.72
2019-04-04T08:09:30.774Z,8.81
2019-04-04T08:11:59.312Z,8.83
2019-04-04T08:14:28.079Z,8.83
2019-04-04T08:16:56.529Z,8.82
2019-04-04T08:19:24.726Z,8.96
2019-04-04T08:21:52.920Z,9.16
2019-04-04T08:24:21.133Z,9.24
2019-04-04T08:26:49.332Z,9.32
2019-04-04T08:29:17.556Z,9.23
2019-04-04T08:31:45.758Z,9.38
2019-04-04T08:34:13.986Z,9.57
2019-04-04T08:36:42.199Z,9.69
2019-04-04T08:39:11.971Z,9.69
2019-04-04T08:41:40.187Z,9.76
2019-04-04T08:44:08.398Z,9.81
2019-04-04T08:46:36.611Z,9.82
2019-04-04T08:49:04.811Z,9.79
2019-04-04T08:51:33.028Z,9.71
2019-04-04T08:54:01.225Z,9.58
2019-04-04T08:56:29.445Z,9.60
2019-04-04T08:58:57.654Z,9.68
2019-04-04T09:01:25.849Z,9.68
2019-04-04T09:03:54.529Z,9.84
2019-04-04T09:06:22.746Z,9.96
2019-04-04T09:08:50.954Z,9.84
2019-04-04T09:11:19.150Z,9.82
2019-04-04T09:13:47.352Z,9.84
2019-04-04T09:16:15.551Z,9.88
2019-04-04T09:18:43.775Z,10.01
2019-04-04T09:21:11.978Z,9.96
2019-04-04T09:23:40.189Z,10.01
2019-04-04T09:26:08.400Z,10.27
2019-04-04T09:28:36.616Z,10.44
2019-04-04T09:31:05.389Z,10.49
2019-04-04T09:33:33.603Z,10.56
2019-04-04T09:36:01.805Z,10.52
2019-04-04T09:38:30.025Z,10.51
2019-04-04T09:40:58.225Z,10.62
2019-04-04T09:43:26.898Z,10.63
2019-04-04T09:45:55.356Z,10.52
2019-04-04T09:48:23.558Z,10.40
2019-04-04T09:50:51.769Z,10.28
2019-04-04T09:53:19.992Z,10.31
2019-04-04T09:55:48.197Z,10.27
2019-04-04T09:58:16.414Z,10.24
2019-04-04T10:00:45.494Z,10.38
2019-04-04T10:03:13.717Z,10.50
2019-04-04T10:05:41.919Z,10.53
2019-04-04T10:08:10.137Z,10.53
2019-04-04T10:10:38.348Z,10.50
2019-04-04T10:13:06.555Z,10.50
2019-04-04T10:15:34.792Z,10.68
2019-04-04T10:18:02.969Z,10.89
2019-04-04T10:20:31.198Z,10.90
2019-04-04T10:22:59.410Z,11.01
2019-04-04T10:25:27.606Z,10.99
2019-04-04T10:27:55.820Z,10.99
2019-04-04T10:30:24.024Z,10.94
2019-04-04T10:32:52.324Z,10.96
2019-04-04T10:35:20.525Z,11.01
2019-04-04T10:37:48.748Z,11.03
2019-04-04T10:40:16.950Z,11.14
2019-04-04T10:42:45.151Z,11.17
2019-04-04T10:45:13.507Z,11.22
2019-04-04T10:47:41.730Z,11.33
2019-04-04T10:50:09.952Z,11.39
2019-04-04T10:52:39.459Z,11.53
2019-04-04T10:55:07.682Z,11.50
2019-04-04T10:57:35.886Z,11.46
2019-04-04T11:00:08.409Z,11.43
2019-04-04T11:02:36.611Z,11.33
2019-04-04T11:05:05.452Z,11.31
2019-04-04T11:07:34.033Z,11.18
2019-04-04T11:10:02.242Z,11.19
2019-04-04T11:12:30.462Z,11.13
2019-04-04T11:14:58.658Z,11.17
2019-04-04T11:17:26.879Z,11.32
2019-04-04T11:19:55.080Z,11.38
2019-04-04T11:22:23.282Z,11.56
2019-04-04T11:24:51.498Z,11.65
2019-04-04T11:27:19.706Z,11.64
2019-04-04T11:29:47.927Z,11.63
2019-04-04T11:32:16.133Z,11.69
2019-04-04T11:34:52.968Z,11.73
2019-04-04T11:37:14.286Z,11.78
2019-04-04T11:39:53.930Z,11.91
2019-04-04T11:42:12.416Z,12.02
2019-04-04T11:44:40.616Z,12.11
2019-04-04T11:47:08.834Z,12.01
2019-04-04T11:49:37.036Z,12.05
2019-04-04T11:52:05.250Z,12.16
2019-04-04T11:54:35.100Z,12.33
2019-04-04T11:57:03.321Z,12.32
2019-04-04T11:59:31.516Z,12.49
2019-04-04T12:02:00.094Z,12.62
2019-04-04T12:04:28.310Z,12.54
2019-04-04T12:06:56.506Z,12.53
2019-04-04T12:09:24.719Z,12.64
2019-04-04T12:11:53.387Z,12.45
2019-04-04T12:14:21.588Z,12.39
2019-04-04T12:16:49.784Z,12.33
2019-04-04T12:19:17.993Z,12.60
2019-04-04T12:21:46.183Z,12.75
2019-04-04T12:24:14.389Z,12.74
2019-04-04T12:26:42.592Z,12.93
2019-04-04T12:29:10.809Z,13.05
2019-04-04T12:31:39.007Z,13.13
2019-04-04T12:34:07.221Z,12.97
2019-04-04T12:36:35.422Z,12.90
2019-04-04T12:39:03.762Z,12.71
2019-04-04T12:41:31.985Z,12.66
2019-04-04T12:44:00.195Z,12.52
2019-04-04T12:46:28.417Z,12.48
2019-04-04T12:48:57.084Z,12.38
2019-04-04T12:51:25.302Z,12.37
2019-04-04T12:53:53.518Z,12.47
2019-04-04T12:56:21.729Z,12.73
2019-04-04T12:58:50.185Z,12.85
2019-04-04T13:01:21.110Z,12.79
2019-04-04T13:03:48.327Z,12.67
2019-04-04T13:06:16.539Z,12.49
2019-04-04T13:08:44.740Z,12.40
2019-04-04T13:11:12.968Z,12.18
2019-04-04T13:13:41.171Z,12.15
2019-04-04T13:16:09.373Z,12.17
2019-04-04T13:18:37.589Z,12.21
2019-04-04T13:21:05.798Z,12.37
2019-04-04T13:23:34.018Z,12.45
2019-04-04T13:26:02.219Z,12.64
2019-04-04T13:28:30.440Z,12.79
2019-04-04T13:30:58.648Z,12.80
2019-04-04T13:33:26.883Z,12.90
2019-04-04T13:35:55.087Z,13.03
2019-04-04T13:38:24.761Z,13.05
2019-04-04T13:40:52.985Z,12.93
2019-04-04T13:43:22.594Z,12.95
2019-04-04T13:45:51.131Z,12.93
2019-04-04T13:48:19.326Z,12.93
2019-04-04T13:50:47.585Z,12.86
2019-04-04T13:53:15.790Z,12.76
2019-04-04T13:55:43.990Z,12.63
2019-04-04T13:58:12.443Z,12.67
2019-04-04T14:00:40.588Z,12.65
2019-04-04T14:03:09.285Z,12.64
2019-04-04T14:05:37.481Z,12.67
2019-04-04T14:08:05.717Z,12.67
2019-04-04T14:10:33.894Z,12.71
2019-04-04T14:13:02.097Z,12.79
2019-04-04T14:15:30.334Z,12.81
2019-04-04T14:17:58.525Z,12.84
2019-04-04T14:20:26.745Z,12.94
2019-04-04T14:22:54.950Z,13.07
2019-04-04T14:25:23.175Z,13.17
2019-04-04T14:27:51.380Z,13.13
2019-04-04T14:30:19.598Z,13.09
2019-04-04T14:32:47.799Z,13.04
2019-04-04T14:35:16.016Z,13.03
2019-04-04T14:37:44.222Z,12.98
2019-04-04T14:40:12.453Z,12.98
2019-04-04T14:42:40.650Z,13.03
2019-04-04T14:45:09.138Z,13.06
2019-04-04T14:47:37.337Z,13.09
2019-04-04T14:50:07.094Z,13.23
2019-04-04T14:52:35.298Z,13.28
2019-04-04T14:55:04.252Z,13.27
2019-04-04T14:57:32.460Z,13.28
2019-04-04T15:00:00.681Z,13.26
2019-04-04T15:02:28.883Z,13.17
2019-04-04T15:04:57.085Z,13.20
2019-04-04T15:07:25.306Z,13.28
2019-04-04T15:09:53.502Z,13.29
2019-04-04T15:12:22.730Z,13.28
2019-04-04T15:14:50.929Z,13.39
2019-04-04T15:17:19.139Z,13.42
2019-04-04T15:19:47.345Z,13.39
2019-04-04T15:22:15.629Z,13.43
2019-04-04T15:24:43.829Z,13.49
2019-04-04T15:27:12.046Z,13.41
2019-04-04T15:29:40.249Z,13.39
2019-04-04T15:32:08.542Z,13.45
2019-04-04T15:34:36.748Z,13.52
2019-04-04T15:37:04.954Z,13.46
2019-04-04T15:39:33.167Z,13.44
2019-04-04T15:42:01.385Z,13.40
2019-04-04T15:44:29.600Z,13.33
2019-04-04T15:46:57.808Z,13.33
2019-04-04T15:49:26.039Z,13.29
2019-04-04T15:51:54.245Z,13.24
2019-04-04T15:54:22.447Z,13.19
2019-04-04T15:56:50.661Z,13.15
2019-04-04T15:59:18.860Z,13.02
2019-04-04T16:01:47.074Z,12.98
2019-04-04T16:04:15.287Z,12.98
2019-04-04T16:06:43.503Z,12.94
2019-04-04T16:09:11.698Z,12.95
2019-04-04T16:11:49.450Z,12.95
2019-04-04T16:14:09.842Z,12.95
2019-04-04T16:16:38.057Z,12.94
2019-04-04T16:19:06.256Z,12.97
2019-04-04T16:21:34.733Z,13.02
2019-04-04T16:24:02.945Z,13.09
2019-04-04T16:26:31.166Z,13.17
2019-04-04T16:28:59.365Z,13.09
2019-04-04T16:31:27.580Z,12.98
2019-04-04T16:33:55.781Z,12.87
2019-04-04T16:36:24.004Z,12.81
2019-04-04T16:38:52.217Z,12.84
2019-04-04T16:41:20.412Z,12.82
2019-04-04T16:43:49.613Z,12.74
2019-04-04T16:46:17.907Z,12.72
2019-04-04T16:48:46.126Z,12.63
2019-04-04T16:51:14.327Z,12.55
2019-04-04T16:53:42.544Z,12.54
2019-04-04T16:56:10.751Z,12.55
2019-04-04T16:58:38.956Z,12.49
2019-04-04T17:01:07.173Z,12.40
2019-04-04T17:03:35.381Z,12.29
2019-04-04T17:06:03.600Z,12.17
2019-04-04T17:08:31.807Z,12.11
2019-04-04T17:11:00.033Z,12.08
2019-04-04T17:13:28.234Z,12.03
2019-04-04T17:15:56.440Z,11.96
2019-04-04T17:18:24.657Z,11.85
2019-04-04T17:20:52.867Z,11.75
2019-04-04T17:23:21.086Z,11.70
2019-04-04T17:25:49.294Z,11.63
2019-04-04T17:28:17.648Z,11.52
2019-04-04T17:30:46.195Z,11.43
2019-04-04T17:33:14.944Z,11.37
2019-04-04T17:35:43.186Z,11.32
2019-04-04T17:38:11.404Z,11.26
2019-04-04T17:40:40.118Z,11.22
2019-04-04T17:43:08.326Z,11.12
2019-04-04T17:45:36.936Z,11.07
2019-04-04T17:48:05.153Z,11.02
2019-04-04T17:50:33.390Z,10.93
2019-04-04T17:53:01.663Z,10.80
2019-04-04T17:55:29.905Z,10.70
2019-04-04T17:57:58.092Z,10.62
2019-04-04T18:00:27.517Z,10.49
2019-04-04T18:02:55.716Z,10.42
2019-04-04T18:05:23.937Z,10.36
2019-04-04T18:07:52.146Z,10.26
2019-04-04T18:10:21.716Z,10.14
2019-04-04T18:12:49.927Z,10.08
2019-04-04T18:15:18.137Z,9.99
2019-04-04T18:17:46.326Z,9.93
2019-04-04T18:20:15.805Z,9.87
2019-04-04T18:22:44.005Z,9.76
2019-04-04T18:25:12.191Z,9.66
2019-04-04T18:27:42.638Z,9.63
2019-04-04T18:30:13.078Z,9.54
2019-04-04T18:32:41.288Z,9.46
2019-04-04T18:35:09.553Z,9.40
2019-04-04T18:37:38.119Z,9.31
2019-04-04T18:40:07.262Z,9.19
2019-04-04T18:42:35.482Z,9.06
2019-04-04T18:45:05.565Z,8.99
2019-04-04T18:47:33.777Z,8.93
2019-04-04T18:50:02.379Z,8.89
2019-04-04T18:52:30.578Z,8.81
2019-04-04T18:54:58.790Z,8.75
2019-04-04T18:57:27.014Z,8.72
2019-04-04T18:59:55.213Z,8.65
2019-04-04T19:02:23.410Z,8.63
2019-04-04T19:04:51.624Z,8.62
2019-04-04T19:07:19.825Z,8.63
2019-04-04T19:09:48.042Z,8.57
2019-04-04T19:12:16.242Z,8.45
2019-04-04T19:14:44.452Z,8.35
2019-04-04T19:17:12.673Z,8.38
2019-04-04T19:19:42.011Z,8.41
2019-04-04T19:22:10.235Z,8.43
2019-04-04T19:24:38.429Z,8.35
2019-04-04T19:27:06.645Z,8.31
2019-04-04T19:29:34.849Z,8.34
2019-04-04T19:32:03.644Z,8.32
2019-04-04T19:34:31.849Z,8.32
2019-04-04T19:37:00.052Z,8.34
2019-04-04T19:39:28.266Z,8.33
2019-04-04T19:41:56.464Z,8.31
2019-04-04T19:44:24.686Z,8.31
2019-04-04T19:46:52.888Z,8.24
2019-04-04T19:49:21.178Z,8.16
2019-04-04T19:51:49.389Z,8.04
2019-04-04T19:54:19.395Z,7.93
2019-04-04T19:56:47.634Z,7.80
2019-04-04T19:59:15.834Z,7.74
2019-04-04T20:01:44.052Z,7.78
2019-04-04T20:04:13.885Z,7.84
2019-04-04T20:06:42.097Z,7.83
2019-04-04T20:09:10.306Z,7.86
2019-04-04T20:11:38.664Z,7.92
2019-04-04T20:14:07.147Z,7.92
2019-04-04T20:16:35.638Z,7.87
2019-04-04T20:19:03.982Z,7.85
2019-04-04T20:21:32.191Z,7.83
2019-04-04T20:24:00.398Z,7.72
2019-04-04T20:26:29.556Z,7.60
2019-04-04T20:28:58.041Z,7.49
2019-04-04T20:31:26.532Z,7.42
2019-04-04T20:34:01.534Z,7.44
2019-04-04T20:36:25.014Z,7.41
2019-04-04T20:38:53.436Z,7.30
2019-04-04T20:41:21.986Z,7.26
2019-04-04T20:43:50.451Z,7.20
2019-04-04T20:46:18.937Z,7.11
2019-04-04T20:48:47.143Z,7.01
2019-04-04T20:51:15.421Z,6.97
2019-04-04T20:53:43.808Z,6.98
2019-04-04T20:56:12.357Z,7.04
2019-04-04T20:58:42.188Z,7.01
2019-04-04T21:01:10.484Z,6.93
2019-04-04T21:03:38.811Z,6.86
2019-04-04T21:06:07.055Z,6.79
2019-04-04T21:08:35.281Z,6.70
2019-04-04T21:11:03.787Z,6.61
2019-04-04T21:13:32.130Z,6.54
2019-04-04T21:16:00.445Z,6.56
2019-04-04T21:18:28.765Z,6.54
2019-04-04T21:20:57.160Z,6.64
2019-04-04T21:23:25.640Z,6.64
2019-04-04T21:25:54.132Z,6.52
2019-04-04T21:28:22.597Z,6.43
2019-04-04T21:30:50.839Z,6.36
2019-04-04T21:33:19.048Z,6.30
2019-04-04T21:35:47.261Z,6.25
2019-04-04T21:38:15.472Z,6.22
2019-04-04T21:40:44.010Z,6.27
2019-04-04T21:43:12.208Z,6.32
2019-04-04T21:45:40.482Z,6.38
2019-04-04T21:48:08.775Z,6.41
2019-04-04T21:50:38.384Z,6.40
2019-04-04T21:53:07.631Z,6.43
2019-04-04T21:55:35.839Z,6.54
2019-04-04T21:58:04.051Z,6.60
2019-04-04T22:00:39.714Z,6.58
2019-04-04T22:03:07.924Z,6.63
2019-04-04T22:05:36.139Z,6.67
2019-04-04T22:08:04.464Z,6.60
2019-04-04T22:10:32.929Z,6.53
2019-04-04T22:13:01.144Z,6.45
2019-04-04T22:15:29.348Z,6.40
2019-04-04T22:17:58.124Z,6.30
2019-04-04T22:20:26.321Z,6.17
2019-04-04T22:22:54.839Z,6.10
2019-04-04T22:25:23.299Z,6.17
2019-04-04T22:27:51.799Z,6.25
2019-04-04T22:30:20.278Z,6.30
2019-04-04T22:32:48.970Z,6.37
2019-04-04T22:35:17.325Z,6.42
2019-04-04T22:37:45.710Z,6.44
2019-04-04T22:40:15.668Z,6.41
2019-04-04T22:42:44.214Z,6.34
2019-04-04T22:45:12.708Z,6.32
2019-04-04T22:47:41.174Z,6.39
2019-04-04T22:50:10.361Z,6.40
2019-04-04T22:52:38.562Z,6.43
2019-04-04T22:55:07.292Z,6.52
2019-04-04T22:57:36.273Z,6.58
2019-04-04T23:00:06.906Z,6.61
2019-04-04T23:02:35.202Z,6.61
2019-04-04T23:05:04.536Z,6.61
2019-04-04T23:07:32.760Z,6.66
2019-04-04T23:10:00.949Z,6.70
2019-04-04T23:12:29.160Z,6.75
2019-04-04T23:14:57.532Z,6.79
2019-04-04T23:17:26.043Z,6.77
2019-04-04T23:19:54.501Z,6.76
2019-04-04T23:22:22.983Z,6.70
2019-04-04T23:24:51.477Z,6.55
2019-04-04T23:27:19.687Z,6.44
2019-04-04T23:29:47.925Z,6.45
2019-04-04T23:32:16.399Z,6.37
2019-04-04T23:34:44.885Z,6.29
2019-04-04T23:37:13.366Z,6.19
2019-04-04T23:39:41.865Z,6.10
2019-04-04T23:42:10.331Z,6.01
2019-04-04T23:44:38.528Z,6.02
2019-04-04T23:47:06.813Z,6.05
2019-04-04T23:49:35.015Z,6.10
2019-04-04T23:52:03.508Z,6.15
2019-04-04T23:54:31.705Z,6.14
2019-04-04T23:56:59.917Z,6.09
2019-04-04T23:59:28.122Z,6.12
